createdAt,value
2023-01-25T00:00:00.409Z,2.09
2023-01-25T00:01:00.404Z,2.08
2023-01-25T00:02:00.443Z,2.06
2023-01-25T00:03:00.398Z,2.06
2023-01-25T00:04:00.338Z,2.08
2023-01-25T00:05:00.378Z,2.04
2023-01-25T00:06:00.355Z,2.04
2023-01-25T00:07:00.305Z,2.06
2023-01-25T00:08:00.297Z,2.04
2023-01-25T00:09:00.294Z,2.06
2023-01-25T00:10:00.275Z,2.06
2023-01-25T00:11:00.267Z,2.06
2023-01-25T00:12:00.258Z,2.06
2023-01-25T00:13:00.221Z,2.06
2023-01-25T00:14:00.212Z,2.06
2023-01-25T00:15:00.246Z,2.04
2023-01-25T00:16:00.195Z,2.02
2023-01-25T00:17:00.184Z,2.01
2023-01-25T00:18:00.164Z,1.99
2023-01-25T00:19:00.161Z,2.01
2023-01-25T00:20:00.171Z,2.01
2023-01-25T00:21:00.145Z,2.02
2023-01-25T00:22:00.129Z,2.04
2023-01-25T00:23:00.105Z,2.06
2023-01-25T00:24:00.182Z,2.08
2023-01-25T00:25:00.117Z,2.08
2023-01-25T00:26:00.087Z,2.06
2023-01-25T00:27:00.100Z,2.06
2023-01-25T00:28:00.029Z,2.04
2023-01-25T00:29:00.035Z,2.02
2023-01-25T00:30:00.018Z,1.99
2023-01-25T00:31:00.011Z,1.98
2023-01-25T00:32:00.081Z,1.98
2023-01-25T00:32:59.970Z,1.97
2023-01-25T00:33:59.977Z,1.94
2023-01-25T00:34:59.972Z,1.94
2023-01-25T00:35:59.931Z,1.97
2023-01-25T00:36:59.945Z,1.94
2023-01-25T00:37:59.910Z,1.94
2023-01-25T00:38:59.907Z,1.94
2023-01-25T00:39:59.911Z,1.94
2023-01-25T00:40:59.883Z,1.94
2023-01-25T00:41:59.870Z,1.94
2023-01-25T00:42:59.851Z,1.94
2023-01-25T00:43:59.862Z,1.94
2023-01-25T00:44:59.859Z,1.94
2023-01-25T00:45:59.818Z,1.97
2023-01-25T00:46:59.811Z,1.97
2023-01-25T00:47:59.796Z,1.97
2023-01-25T00:48:59.781Z,1.98
2023-01-25T00:49:59.759Z,1.98
2023-01-25T00:50:59.753Z,1.97
2023-01-25T00:51:59.750Z,1.98
2023-01-25T00:52:59.721Z,1.97
2023-01-25T00:53:59.704Z,1.97
2023-01-25T00:54:59.701Z,1.97
2023-01-25T00:55:59.694Z,1.97
2023-01-25T00:56:59.682Z,1.99
2023-01-25T00:57:59.676Z,1.98
2023-01-25T00:58:59.643Z,1.98
2023-01-25T00:59:59.631Z,1.97
2023-01-25T01:00:59.699Z,1.94
2023-01-25T01:01:59.617Z,1.97
2023-01-25T01:02:59.649Z,1.94
2023-01-25T01:03:59.582Z,1.97
2023-01-25T01:04:59.612Z,1.93
2023-01-25T01:05:59.563Z,1.93
2023-01-25T01:06:59.569Z,1.94
2023-01-25T01:07:59.542Z,1.94
2023-01-25T01:08:59.514Z,1.94
2023-01-25T01:09:59.511Z,1.94
2023-01-25T01:10:59.505Z,1.94
2023-01-25T01:11:59.481Z,1.93
2023-01-25T01:12:59.478Z,1.91
2023-01-25T01:13:59.464Z,1.91
2023-01-25T01:14:59.470Z,1.91
2023-01-25T01:15:59.437Z,1.93
2023-01-25T01:16:59.466Z,1.91
2023-01-25T01:17:59.402Z,1.91
2023-01-25T01:18:59.440Z,1.89
2023-01-25T01:19:59.385Z,1.89
2023-01-25T01:20:59.379Z,1.87
2023-01-25T01:21:59.363Z,1.90
2023-01-25T01:22:59.360Z,1.87
2023-01-25T01:23:59.426Z,1.87
2023-01-25T01:25:00.592Z,1.87
2023-01-25T01:25:59.301Z,1.85
2023-01-25T01:26:59.305Z,1.85
2023-01-25T01:27:59.314Z,1.85
2023-01-25T01:28:59.271Z,1.85
2023-01-25T01:29:59.259Z,1.87
2023-01-25T01:30:59.230Z,1.85
2023-01-25T01:31:59.354Z,1.85
2023-01-25T01:32:59.241Z,1.87
2023-01-25T01:33:59.211Z,1.83
2023-01-25T01:34:59.184Z,1.87
2023-01-25T01:35:59.179Z,1.87
2023-01-25T01:36:59.182Z,1.89
2023-01-25T01:37:59.153Z,1.89
2023-01-25T01:38:59.134Z,1.89
2023-01-25T01:39:59.122Z,1.87
2023-01-25T01:40:59.145Z,1.87
2023-01-25T01:41:59.107Z,1.85
2023-01-25T01:42:59.132Z,1.85
2023-01-25T01:43:59.092Z,1.83
2023-01-25T01:44:59.064Z,1.80
2023-01-25T01:45:59.124Z,1.79
2023-01-25T01:46:59.054Z,1.79
2023-01-25T01:47:59.047Z,1.78
2023-01-25T01:48:59.027Z,1.76
2023-01-25T01:49:59.001Z,1.75
2023-01-25T01:50:59.022Z,1.75
2023-01-25T01:51:58.980Z,1.76
2023-01-25T01:52:58.951Z,1.73
2023-01-25T01:53:58.972Z,1.73
2023-01-25T01:54:58.944Z,1.75
2023-01-25T01:55:58.923Z,1.75
2023-01-25T01:56:58.912Z,1.75
2023-01-25T01:57:58.916Z,1.75
2023-01-25T01:58:58.892Z,1.75
2023-01-25T01:59:58.881Z,1.73
2023-01-25T02:00:58.901Z,1.75
2023-01-25T02:01:58.852Z,1.73
2023-01-25T02:02:58.861Z,1.72
2023-01-25T02:03:58.832Z,1.73
2023-01-25T02:04:58.816Z,1.73
2023-01-25T02:05:58.796Z,1.73
2023-01-25T02:06:58.795Z,1.71
2023-01-25T02:07:58.775Z,1.71
2023-01-25T02:08:58.789Z,1.71
2023-01-25T02:09:58.787Z,1.71
2023-01-25T02:10:58.733Z,1.68
2023-01-25T02:11:58.727Z,1.69
2023-01-25T02:12:58.717Z,1.68
2023-01-25T02:13:58.694Z,1.69
2023-01-25T02:14:58.725Z,1.68
2023-01-25T02:15:58.731Z,1.69
2023-01-25T02:16:58.667Z,1.68
2023-01-25T02:17:58.641Z,1.68
2023-01-25T02:18:58.659Z,1.68
2023-01-25T02:19:58.642Z,1.69
2023-01-25T02:20:58.630Z,1.68
2023-01-25T02:21:58.616Z,1.68
2023-01-25T02:22:58.585Z,1.68
2023-01-25T02:23:58.650Z,1.71
2023-01-25T02:24:58.569Z,1.72
2023-01-25T02:25:58.550Z,1.73
2023-01-25T02:26:58.545Z,1.76
2023-01-25T02:27:58.512Z,1.75
2023-01-25T02:28:58.508Z,1.76
2023-01-25T02:29:58.520Z,1.75
2023-01-25T02:30:58.557Z,1.75
2023-01-25T02:31:58.499Z,1.75
2023-01-25T02:32:58.453Z,1.75
2023-01-25T02:33:58.473Z,1.76
2023-01-25T02:34:58.443Z,1.75
2023-01-25T02:35:58.415Z,1.76
2023-01-25T02:36:58.425Z,1.78
2023-01-25T02:37:58.401Z,1.75
2023-01-25T02:38:58.383Z,1.75
2023-01-25T02:39:58.407Z,1.75
2023-01-25T02:40:58.353Z,1.73
2023-01-25T02:41:58.344Z,1.72
2023-01-25T02:42:58.331Z,1.72
2023-01-25T02:43:58.349Z,1.72
2023-01-25T02:44:58.312Z,1.73
2023-01-25T02:45:58.376Z,1.72
2023-01-25T02:46:58.288Z,1.72
2023-01-25T02:47:58.281Z,1.71
2023-01-25T02:48:58.256Z,1.69
2023-01-25T02:49:58.277Z,1.68
2023-01-25T02:50:58.243Z,1.68
2023-01-25T02:51:58.231Z,1.65
2023-01-25T02:52:58.203Z,1.65
2023-01-25T02:53:58.241Z,1.68
2023-01-25T02:54:58.215Z,1.68
2023-01-25T02:55:58.185Z,1.68
2023-01-25T02:56:58.162Z,1.68
2023-01-25T02:57:58.139Z,1.65
2023-01-25T02:58:58.127Z,1.68
2023-01-25T02:59:58.142Z,1.68
2023-01-25T03:00:58.110Z,1.69
2023-01-25T03:01:58.155Z,1.69
2023-01-25T03:02:58.171Z,1.71
2023-01-25T03:03:58.080Z,1.69
2023-01-25T03:04:58.066Z,1.71
2023-01-25T03:05:58.054Z,1.69
2023-01-25T03:06:58.023Z,1.71
2023-01-25T03:07:58.023Z,1.69
2023-01-25T03:08:58.001Z,1.71
2023-01-25T03:09:58.004Z,1.71
2023-01-25T03:10:58.005Z,1.71
2023-01-25T03:11:57.961Z,1.71
2023-01-25T03:12:57.944Z,1.71
2023-01-25T03:13:57.954Z,1.71
2023-01-25T03:14:57.926Z,1.69
2023-01-25T03:15:57.961Z,1.69
2023-01-25T03:16:57.923Z,1.68
2023-01-25T03:17:57.883Z,1.69
2023-01-25T03:18:57.877Z,1.69
2023-01-25T03:19:57.876Z,1.69
2023-01-25T03:20:57.862Z,1.68
2023-01-25T03:21:57.843Z,1.69
2023-01-25T03:22:57.831Z,1.71
2023-01-25T03:23:57.847Z,1.71
2023-01-25T03:24:57.830Z,1.71
2023-01-25T03:25:57.786Z,1.71
2023-01-25T03:26:57.777Z,1.71
2023-01-25T03:27:57.763Z,1.72
2023-01-25T03:28:57.748Z,1.71
2023-01-25T03:29:57.749Z,1.69
2023-01-25T03:30:57.763Z,1.69
2023-01-25T03:31:57.767Z,1.65
2023-01-25T03:32:57.723Z,1.65
2023-01-25T03:33:57.675Z,1.65
2023-01-25T03:34:57.663Z,1.64
2023-01-25T03:35:57.695Z,1.62
2023-01-25T03:36:57.659Z,1.64
2023-01-25T03:37:57.644Z,1.65
2023-01-25T03:38:57.615Z,1.64
2023-01-25T03:39:57.615Z,1.65
2023-01-25T03:40:57.607Z,1.64
2023-01-25T03:41:57.596Z,1.65
2023-01-25T03:42:57.584Z,1.64
2023-01-25T03:43:57.567Z,1.65
2023-01-25T03:44:57.543Z,1.65
2023-01-25T03:45:57.551Z,1.62
2023-01-25T03:46:57.634Z,1.65
2023-01-25T03:47:57.524Z,1.65
2023-01-25T03:48:57.490Z,1.65
2023-01-25T03:49:57.484Z,1.65
2023-01-25T04:03:24.345Z,1.69
2023-01-25T04:04:24.321Z,1.69
2023-01-25T04:05:24.289Z,1.69
2023-01-25T04:06:24.285Z,1.71
2023-01-25T04:07:24.278Z,1.69
2023-01-25T04:08:24.290Z,1.71
2023-01-25T04:09:24.264Z,1.69
2023-01-25T04:10:24.246Z,1.68
2023-01-25T04:11:24.246Z,1.65
2023-01-25T04:12:24.214Z,1.64
2023-01-25T04:13:24.207Z,1.64
2023-01-25T04:14:42.511Z,1.64
2023-01-25T04:15:25.196Z,1.64
2023-01-25T04:16:24.183Z,1.62
2023-01-25T04:17:24.154Z,1.64
2023-01-25T04:18:24.147Z,1.65
2023-01-25T04:19:24.124Z,1.65
2023-01-25T04:20:24.117Z,1.65
2023-01-25T04:21:24.120Z,1.64
2023-01-25T04:22:24.089Z,1.64
2023-01-25T04:23:24.075Z,1.64
2023-01-25T04:24:24.076Z,1.64
2023-01-25T04:25:24.048Z,1.64
2023-01-25T04:26:24.063Z,1.64
2023-01-25T04:27:24.035Z,1.68
2023-01-25T04:28:24.020Z,1.68
2023-01-25T04:29:39.140Z,1.65
2023-01-25T04:30:25.007Z,1.65
2023-01-25T04:31:24.073Z,1.64
2023-01-25T04:32:24.076Z,1.65
2023-01-25T04:33:23.964Z,1.64
2023-01-25T04:34:23.946Z,1.68
2023-01-25T04:35:23.931Z,1.68
2023-01-25T04:36:23.928Z,1.62
2023-01-25T04:37:23.897Z,1.64
2023-01-25T04:38:23.899Z,1.62
2023-01-25T04:39:23.869Z,1.62
2023-01-25T04:40:23.918Z,1.62
2023-01-25T04:41:23.863Z,1.62
2023-01-25T04:42:23.868Z,1.62
2023-01-25T04:43:23.835Z,1.61
2023-01-25T04:44:23.869Z,1.64
2023-01-25T04:45:23.796Z,1.62
2023-01-25T04:46:23.815Z,1.62
2023-01-25T04:47:23.779Z,1.62
2023-01-25T04:48:23.765Z,1.61
2023-01-25T04:49:23.766Z,1.61
2023-01-25T04:50:23.761Z,1.60
2023-01-25T04:51:23.733Z,1.58
2023-01-25T04:52:23.717Z,1.61
2023-01-25T04:53:23.704Z,1.61
2023-01-25T04:54:23.688Z,1.61
2023-01-25T04:55:23.679Z,1.62
2023-01-25T04:56:23.684Z,1.60
2023-01-25T04:57:23.645Z,1.60
2023-01-25T04:58:23.649Z,1.58
2023-01-25T04:59:23.628Z,1.58
2023-01-25T05:00:23.641Z,1.58
2023-01-25T05:01:23.646Z,1.58
2023-01-25T05:02:23.671Z,1.58
2023-01-25T05:03:23.596Z,1.58
2023-01-25T05:04:23.572Z,1.58
2023-01-25T05:05:23.545Z,1.57
2023-01-25T05:06:23.599Z,1.55
2023-01-25T05:07:23.525Z,1.57
2023-01-25T05:08:23.513Z,1.57
2023-01-25T05:09:23.505Z,1.57
2023-01-25T05:10:23.517Z,1.57
2023-01-25T05:11:23.524Z,1.58
2023-01-25T05:12:23.481Z,1.57
2023-01-25T05:13:23.465Z,1.57
2023-01-25T05:14:23.468Z,1.54
2023-01-25T05:15:23.438Z,1.54
2023-01-25T05:16:23.494Z,1.51
2023-01-25T05:17:23.398Z,1.52
2023-01-25T05:18:23.402Z,1.51
2023-01-25T05:19:23.376Z,1.52
2023-01-25T05:20:23.400Z,1.52
2023-01-25T05:21:23.376Z,1.51
2023-01-25T05:22:23.357Z,1.50
2023-01-25T05:23:23.326Z,1.50
2023-01-25T05:24:23.377Z,1.50
2023-01-25T05:25:23.286Z,1.50
2023-01-25T05:26:23.293Z,1.51
2023-01-25T05:27:23.322Z,1.51
2023-01-25T05:28:23.255Z,1.52
2023-01-25T05:29:23.237Z,1.51
2023-01-25T05:30:23.238Z,1.50
2023-01-25T05:31:23.341Z,1.50
2023-01-25T05:32:23.221Z,1.51
2023-01-25T05:33:23.215Z,1.51
2023-01-25T05:34:23.238Z,1.54
2023-01-25T05:35:23.216Z,1.54
2023-01-25T05:36:23.169Z,1.54
2023-01-25T05:37:23.156Z,1.51
2023-01-25T05:38:23.138Z,1.50
2023-01-25T05:39:23.115Z,1.46
2023-01-25T05:40:23.107Z,1.46
2023-01-25T05:41:23.102Z,1.46
2023-01-25T05:42:23.108Z,1.47
2023-01-25T05:43:23.080Z,1.47
2023-01-25T05:44:23.077Z,1.46
2023-01-25T05:45:23.047Z,1.51
2023-01-25T05:46:23.077Z,1.51
2023-01-25T05:47:23.057Z,1.51
2023-01-25T05:48:23.009Z,1.50
2023-01-25T05:49:22.992Z,1.50
2023-01-25T05:50:22.993Z,1.51
2023-01-25T05:51:22.990Z,1.51
2023-01-25T05:52:22.979Z,1.52
2023-01-25T05:53:22.950Z,1.52
2023-01-25T05:54:22.984Z,1.52
2023-01-25T05:55:22.910Z,1.52
2023-01-25T05:56:22.909Z,1.52
2023-01-25T05:57:22.938Z,1.50
2023-01-25T05:58:22.898Z,1.51
2023-01-25T05:59:22.867Z,1.47
2023-01-25T06:00:22.857Z,1.46
2023-01-25T06:01:22.854Z,1.44
2023-01-25T06:02:23.033Z,1.42
2023-01-25T06:03:22.907Z,1.39
2023-01-25T06:04:22.805Z,1.39
2023-01-25T06:05:22.811Z,1.39
2023-01-25T06:06:22.785Z,1.39
2023-01-25T06:07:24.736Z,1.39
2023-01-25T06:08:22.763Z,1.40
2023-01-25T06:09:22.763Z,1.40
2023-01-25T06:10:22.736Z,1.40
2023-01-25T06:11:22.729Z,1.42
2023-01-25T06:12:22.726Z,1.42
2023-01-25T06:13:22.701Z,1.42
2023-01-25T06:14:22.669Z,1.43
2023-01-25T06:15:22.678Z,1.42
2023-01-25T06:16:22.666Z,1.42
2023-01-25T06:17:22.648Z,1.42
2023-01-25T06:18:22.618Z,1.44
2023-01-25T06:19:22.726Z,1.44
2023-01-25T06:20:22.609Z,1.46
2023-01-25T06:21:22.599Z,1.46
2023-01-25T06:22:22.587Z,1.44
2023-01-25T06:23:22.560Z,1.44
2023-01-25T06:24:22.637Z,1.44
2023-01-25T06:25:22.537Z,1.44
2023-01-25T06:26:22.535Z,1.47
2023-01-25T06:27:22.516Z,1.47
2023-01-25T06:28:22.529Z,1.46
2023-01-25T06:29:22.509Z,1.43
2023-01-25T06:30:22.491Z,1.42
2023-01-25T06:31:22.587Z,1.40
2023-01-25T06:32:22.479Z,1.42
2023-01-25T06:33:22.459Z,1.42
2023-01-25T06:34:22.417Z,1.43
2023-01-25T06:35:22.428Z,1.43
2023-01-25T06:36:22.433Z,1.44
2023-01-25T06:37:22.431Z,1.44
2023-01-25T06:38:22.400Z,1.42
2023-01-25T06:39:22.376Z,1.37
2023-01-25T06:40:22.359Z,1.36
2023-01-25T06:41:22.346Z,1.29
2023-01-25T06:42:22.347Z,1.25
2023-01-25T06:43:22.322Z,1.19
2023-01-25T06:44:22.299Z,1.16
2023-01-25T06:45:22.287Z,1.15
2023-01-25T06:46:22.353Z,1.16
2023-01-25T06:47:22.318Z,1.19
2023-01-25T06:48:22.268Z,1.22
2023-01-25T06:49:22.242Z,1.25
2023-01-25T06:50:22.237Z,1.28
2023-01-25T06:51:22.216Z,1.28
2023-01-25T06:52:22.212Z,1.32
2023-01-25T06:53:22.216Z,1.34
2023-01-25T06:54:22.187Z,1.34
2023-01-25T06:55:22.169Z,1.37
2023-01-25T06:56:22.185Z,1.36
2023-01-25T06:57:22.149Z,1.37
2023-01-25T06:58:22.138Z,1.39
2023-01-25T06:59:22.114Z,1.39
2023-01-25T07:00:22.117Z,1.39
2023-01-25T07:01:22.196Z,1.39
2023-01-25T07:02:22.129Z,1.39
2023-01-25T07:03:22.089Z,1.37
2023-01-25T07:04:22.055Z,1.36
2023-01-25T07:05:22.080Z,1.36
2023-01-25T07:06:22.039Z,1.34
2023-01-25T07:07:22.016Z,1.34
2023-01-25T07:08:22.033Z,1.33
2023-01-25T07:09:21.982Z,1.32
2023-01-25T07:10:22.035Z,1.33
2023-01-25T07:11:21.959Z,1.33
2023-01-25T07:12:21.953Z,1.32
2023-01-25T07:13:21.929Z,1.32
2023-01-25T07:14:21.962Z,1.29
2023-01-25T07:15:21.910Z,1.29
2023-01-25T07:16:21.928Z,1.28
2023-01-25T07:17:21.898Z,1.28
2023-01-25T07:18:21.887Z,1.26
2023-01-25T07:19:21.868Z,1.26
2023-01-25T07:20:21.864Z,1.26
2023-01-25T07:21:21.874Z,1.28
2023-01-25T07:22:21.830Z,1.26
2023-01-25T07:23:21.807Z,1.28
2023-01-25T07:24:21.894Z,1.28
2023-01-25T07:25:21.784Z,1.28
2023-01-25T07:26:21.776Z,1.29
2023-01-25T07:27:21.772Z,1.26
2023-01-25T07:28:21.768Z,1.28
2023-01-25T07:29:21.761Z,1.26
2023-01-25T07:30:21.744Z,1.26
2023-01-25T07:31:21.742Z,1.26
2023-01-25T07:32:21.713Z,1.26
2023-01-25T07:33:21.699Z,1.26
2023-01-25T07:34:21.694Z,1.28
2023-01-25T07:35:21.660Z,1.26
2023-01-25T07:36:21.683Z,1.24
2023-01-25T07:37:21.618Z,1.22
2023-01-25T07:38:21.627Z,1.22
2023-01-25T07:39:21.656Z,1.22
2023-01-25T07:40:21.589Z,1.22
2023-01-25T07:41:21.623Z,1.22
2023-01-25T07:42:21.568Z,1.24
2023-01-25T07:43:21.568Z,1.24
2023-01-25T07:44:21.579Z,1.25
2023-01-25T07:45:21.542Z,1.25
2023-01-25T07:46:21.508Z,1.25
2023-01-25T07:47:21.511Z,1.25
2023-01-25T07:48:21.497Z,1.26
2023-01-25T07:49:21.498Z,1.25
2023-01-25T07:50:21.475Z,1.24
2023-01-25T07:51:21.506Z,1.22
2023-01-25T07:52:21.480Z,1.24
2023-01-25T07:53:21.531Z,1.22
2023-01-25T07:54:21.431Z,1.22
2023-01-25T07:55:21.437Z,1.22
2023-01-25T07:56:21.406Z,1.22
2023-01-25T07:57:21.422Z,1.22
2023-01-25T07:58:21.362Z,1.22
2023-01-25T07:59:21.378Z,1.22
2023-01-25T08:00:23.280Z,1.22
2023-01-25T08:01:21.341Z,1.24
2023-01-25T08:02:21.324Z,1.22
2023-01-25T08:03:21.350Z,1.24
2023-01-25T08:04:21.303Z,1.25
2023-01-25T08:05:21.314Z,1.26
2023-01-25T08:06:21.282Z,1.29
2023-01-25T08:07:21.306Z,1.28
2023-01-25T08:08:21.242Z,1.28
2023-01-25T08:09:21.264Z,1.29
2023-01-25T08:10:21.248Z,1.32
2023-01-25T08:11:21.223Z,1.29
2023-01-25T08:12:21.235Z,1.29
2023-01-25T08:13:21.194Z,1.32
2023-01-25T08:14:21.198Z,1.32
2023-01-25T08:15:21.259Z,1.32
2023-01-25T08:16:21.176Z,1.33
2023-01-25T08:17:21.141Z,1.34
2023-01-25T08:18:21.117Z,1.36
2023-01-25T08:19:21.124Z,1.36
2023-01-25T08:20:21.090Z,1.34
2023-01-25T08:21:21.091Z,1.28
2023-01-25T08:22:21.089Z,1.29
2023-01-25T08:23:21.067Z,1.26
2023-01-25T08:24:22.492Z,1.28
2023-01-25T08:25:21.036Z,1.28
2023-01-25T08:26:21.020Z,1.28
2023-01-25T08:27:21.014Z,1.25
2023-01-25T08:28:21.009Z,1.24
2023-01-25T08:29:20.997Z,1.25
2023-01-25T08:30:21.014Z,1.26
2023-01-25T08:31:21.035Z,1.28
2023-01-25T08:32:20.952Z,1.29
2023-01-25T08:33:20.989Z,1.33
2023-01-25T08:34:20.925Z,1.33
2023-01-25T08:35:20.924Z,1.33
2023-01-25T08:36:20.891Z,1.33
2023-01-25T08:37:20.928Z,1.33
2023-01-25T08:38:20.896Z,1.33
2023-01-25T08:39:20.850Z,1.29
2023-01-25T08:40:20.851Z,1.26
2023-01-25T08:41:20.870Z,1.29
2023-01-25T08:42:21.605Z,1.28
2023-01-25T08:43:20.822Z,1.29
2023-01-25T08:44:20.793Z,1.29
2023-01-25T08:45:20.790Z,1.33
2023-01-25T08:46:20.772Z,1.36
2023-01-25T08:47:20.768Z,1.39
2023-01-25T08:48:20.771Z,1.34
2023-01-25T08:49:20.722Z,1.36
2023-01-25T08:50:20.944Z,1.33
2023-01-25T08:51:20.710Z,1.32
2023-01-25T08:52:21.958Z,1.29
2023-01-25T08:53:20.705Z,1.26
2023-01-25T08:54:20.691Z,1.22
2023-01-25T08:55:20.663Z,1.19
2023-01-25T08:56:20.641Z,1.18
2023-01-25T08:57:20.760Z,1.19
2023-01-25T08:58:20.761Z,1.21
2023-01-25T08:59:20.635Z,1.24
2023-01-25T09:00:20.605Z,1.25
2023-01-25T09:01:20.582Z,1.28
2023-01-25T09:02:20.569Z,1.28
2023-01-25T09:03:20.563Z,1.25
2023-01-25T09:04:20.703Z,1.25
2023-01-25T09:05:20.534Z,1.24
2023-01-25T09:06:20.795Z,1.25
2023-01-25T09:07:20.496Z,1.28
2023-01-25T09:08:20.574Z,1.32
2023-01-25T09:09:20.478Z,1.34
2023-01-25T09:10:20.589Z,1.36
2023-01-25T09:11:20.529Z,1.36
2023-01-25T09:12:20.525Z,1.37
2023-01-25T09:13:20.438Z,1.37
2023-01-25T09:14:20.503Z,1.39
2023-01-25T09:15:20.418Z,1.39
2023-01-25T09:16:20.704Z,1.37
2023-01-25T09:17:20.386Z,1.40
2023-01-25T09:18:20.365Z,1.39
2023-01-25T09:19:20.362Z,1.40
2023-01-25T09:20:20.490Z,1.39
2023-01-25T09:21:20.339Z,1.39
2023-01-25T09:22:20.332Z,1.37
2023-01-25T09:23:20.298Z,1.37
2023-01-25T09:24:20.315Z,1.37
2023-01-25T09:25:20.285Z,1.40
2023-01-25T09:26:20.327Z,1.39
2023-01-25T09:27:20.259Z,1.42
2023-01-25T09:28:20.229Z,1.42
2023-01-25T09:29:20.256Z,1.44
2023-01-25T09:30:20.349Z,1.44
2023-01-25T09:31:22.842Z,1.46
2023-01-25T09:32:20.305Z,1.46
2023-01-25T09:33:20.186Z,1.47
2023-01-25T09:34:20.198Z,1.51
2023-01-25T09:35:20.155Z,1.52
2023-01-25T09:36:20.136Z,1.54
2023-01-25T09:37:20.185Z,1.52
2023-01-25T09:38:20.108Z,1.54
2023-01-25T09:39:20.203Z,1.54
2023-01-25T09:40:20.101Z,1.54
2023-01-25T09:41:20.116Z,1.54
2023-01-25T09:42:21.369Z,1.54
2023-01-25T09:43:20.092Z,1.54
2023-01-25T09:44:20.065Z,1.54
2023-01-25T09:45:20.066Z,1.52
2023-01-25T09:46:20.073Z,1.47
2023-01-25T09:47:19.999Z,1.43
2023-01-25T10:03:34.480Z,1.47
2023-01-25T10:04:34.445Z,1.51
2023-01-25T10:05:34.453Z,1.54
2023-01-25T10:06:34.422Z,1.55
2023-01-25T10:07:34.415Z,1.55
2023-01-25T10:08:34.459Z,1.57
2023-01-25T10:09:34.395Z,1.60
2023-01-25T10:10:34.396Z,1.61
2023-01-25T10:11:34.364Z,1.62
2023-01-25T10:12:34.356Z,1.64
2023-01-25T10:13:34.349Z,1.64
2023-01-25T10:14:34.332Z,1.62
2023-01-25T10:15:34.336Z,1.60
2023-01-25T10:16:34.350Z,1.60
2023-01-25T10:17:34.302Z,1.57
2023-01-25T10:18:34.285Z,1.57
2023-01-25T10:19:34.277Z,1.58
2023-01-25T10:20:34.275Z,1.60
2023-01-25T10:21:34.247Z,1.62
2023-01-25T10:22:34.223Z,1.62
2023-01-25T10:23:34.212Z,1.65
2023-01-25T10:24:34.212Z,1.65
2023-01-25T10:25:34.219Z,1.68
2023-01-25T10:26:34.181Z,1.68
2023-01-25T10:27:34.176Z,1.69
2023-01-25T10:28:34.168Z,1.71
2023-01-25T10:29:34.152Z,1.71
2023-01-25T10:30:34.161Z,1.71
2023-01-25T10:31:34.205Z,1.72
2023-01-25T10:32:35.931Z,1.72
2023-01-25T10:33:37.559Z,1.71
2023-01-25T10:34:35.463Z,1.71
2023-01-25T10:35:37.775Z,1.69
2023-01-25T10:36:34.054Z,1.69
2023-01-25T10:37:34.062Z,1.69
2023-01-25T10:38:34.035Z,1.69
2023-01-25T10:39:34.033Z,1.71
2023-01-25T10:40:34.004Z,1.71
2023-01-25T10:41:34.008Z,1.72
2023-01-25T10:42:33.974Z,1.72
2023-01-25T10:43:33.972Z,1.73
2023-01-25T10:44:33.963Z,1.73
2023-01-25T10:45:33.957Z,1.75
2023-01-25T10:46:33.976Z,1.73
2023-01-25T10:47:33.925Z,1.71
2023-01-25T10:48:33.919Z,1.71
2023-01-25T10:49:33.894Z,1.69
2023-01-25T10:50:33.884Z,1.68
2023-01-25T10:51:33.889Z,1.68
2023-01-25T10:52:33.856Z,1.68
2023-01-25T10:53:33.859Z,1.68
2023-01-25T10:54:33.812Z,1.68
2023-01-25T10:55:33.833Z,1.68
2023-01-25T10:56:33.791Z,1.68
2023-01-25T10:57:33.783Z,1.71
2023-01-25T10:58:33.784Z,1.69
2023-01-25T10:59:33.757Z,1.69
2023-01-25T11:00:33.773Z,1.68
2023-01-25T11:01:33.780Z,1.68
2023-01-25T11:02:33.746Z,1.69
2023-01-25T11:03:33.713Z,1.69
2023-01-25T11:04:33.701Z,1.68
2023-01-25T11:05:33.705Z,1.68
2023-01-25T11:06:33.673Z,1.62
2023-01-25T11:07:33.680Z,1.64
2023-01-25T11:08:33.660Z,1.62
2023-01-25T11:09:33.649Z,1.61
2023-01-25T11:10:33.623Z,1.57
2023-01-25T11:11:33.614Z,1.58
2023-01-25T11:12:33.611Z,1.61
2023-01-25T11:13:33.596Z,1.64
2023-01-25T11:14:33.599Z,1.64
2023-01-25T11:15:33.575Z,1.65
2023-01-25T11:16:33.560Z,1.65
2023-01-25T11:17:33.549Z,1.65
2023-01-25T11:18:33.539Z,1.65
2023-01-25T11:19:33.533Z,1.68
2023-01-25T11:20:33.517Z,1.68
2023-01-25T11:21:33.496Z,1.68
2023-01-25T11:22:33.468Z,1.68
2023-01-25T11:23:33.476Z,1.68
2023-01-25T11:24:33.454Z,1.65
2023-01-25T11:25:33.451Z,1.68
2023-01-25T11:26:33.415Z,1.65
2023-01-25T11:27:33.416Z,1.68
2023-01-25T11:28:33.393Z,1.71
2023-01-25T11:29:33.393Z,1.71
2023-01-25T11:30:33.414Z,1.75
2023-01-25T11:31:33.510Z,1.72
2023-01-25T11:32:33.356Z,1.72
2023-01-25T11:33:33.350Z,1.71
2023-01-25T11:34:33.324Z,1.69
2023-01-25T11:35:33.352Z,1.64
2023-01-25T11:36:33.316Z,1.64
2023-01-25T11:37:33.289Z,1.64
2023-01-25T11:38:33.275Z,1.64
2023-01-25T11:39:33.282Z,1.62
2023-01-25T11:40:33.252Z,1.64
2023-01-25T11:41:35.048Z,1.69
2023-01-25T11:42:33.220Z,1.72
2023-01-25T11:43:33.208Z,1.75
2023-01-25T11:44:33.194Z,1.76
2023-01-25T11:45:33.226Z,1.78
2023-01-25T11:46:33.246Z,1.78
2023-01-25T11:47:33.145Z,1.79
2023-01-25T11:48:33.138Z,1.79
2023-01-25T11:49:33.133Z,1.76
2023-01-25T11:50:33.153Z,1.78
2023-01-25T11:51:33.121Z,1.79
2023-01-25T11:52:33.085Z,1.82
2023-01-25T11:53:33.174Z,1.85
2023-01-25T11:54:33.070Z,1.89
2023-01-25T11:55:33.081Z,1.90
2023-01-25T11:56:33.048Z,1.91
2023-01-25T11:57:33.030Z,1.91
2023-01-25T11:58:33.004Z,1.94
2023-01-25T11:59:33.001Z,1.93
2023-01-25T12:00:33.005Z,1.94
2023-01-25T12:01:32.997Z,1.97
2023-01-25T12:02:33.002Z,1.98
2023-01-25T12:03:33.006Z,1.98
2023-01-25T12:04:32.934Z,1.98
2023-01-25T12:05:32.947Z,1.98
2023-01-25T12:06:32.930Z,1.97
2023-01-25T12:07:32.908Z,1.98
2023-01-25T12:08:33.100Z,1.97
2023-01-25T12:09:32.917Z,1.94
2023-01-25T12:10:32.875Z,1.94
2023-01-25T12:11:32.855Z,1.97
2023-01-25T12:12:32.850Z,1.93
2023-01-25T12:13:32.835Z,1.91
2023-01-25T12:14:32.808Z,1.91
2023-01-25T12:15:32.825Z,1.90
2023-01-25T12:16:32.810Z,1.91
2023-01-25T12:17:32.775Z,1.91
2023-01-25T12:18:32.764Z,1.93
2023-01-25T12:19:32.744Z,1.91
2023-01-25T12:20:32.773Z,1.90
2023-01-25T12:21:32.748Z,1.91
2023-01-25T12:22:32.725Z,1.91
2023-01-25T12:23:32.716Z,1.91
2023-01-25T12:24:32.700Z,1.90
2023-01-25T12:25:32.695Z,1.89
2023-01-25T12:26:32.824Z,1.87
2023-01-25T12:27:32.657Z,1.83
2023-01-25T12:28:32.785Z,1.85
2023-01-25T12:29:32.645Z,1.89
2023-01-25T12:30:32.630Z,1.91
2023-01-25T12:31:32.641Z,1.91
2023-01-25T12:32:32.595Z,1.93
2023-01-25T12:33:32.585Z,1.91
2023-01-25T12:34:32.578Z,1.87
2023-01-25T12:35:32.555Z,1.82
2023-01-25T12:36:32.544Z,1.80
2023-01-25T12:37:32.541Z,1.78
2023-01-25T12:38:32.534Z,1.78
2023-01-25T12:39:32.513Z,1.79
2023-01-25T12:40:32.506Z,1.79
2023-01-25T12:41:32.483Z,1.80
2023-01-25T12:42:32.466Z,1.80
2023-01-25T12:43:32.459Z,1.82
2023-01-25T12:44:32.437Z,1.82
2023-01-25T12:45:32.420Z,1.85
2023-01-25T12:46:32.468Z,1.82
2023-01-25T12:47:32.422Z,1.76
2023-01-25T12:48:32.423Z,1.72
2023-01-25T12:49:32.388Z,1.68
2023-01-25T12:50:32.366Z,1.65
2023-01-25T12:51:32.367Z,1.68
2023-01-25T12:52:32.324Z,1.71
2023-01-25T12:53:32.329Z,1.68
2023-01-25T12:54:32.316Z,1.65
2023-01-25T12:55:32.294Z,1.68
2023-01-25T12:56:32.299Z,1.68
2023-01-25T12:57:32.268Z,1.68
2023-01-25T12:58:37.703Z,1.68
2023-01-25T12:59:33.235Z,1.71
2023-01-25T13:00:32.833Z,1.75
2023-01-25T13:01:32.257Z,1.76
2023-01-25T13:02:32.224Z,1.79
2023-01-25T13:03:32.196Z,1.82
2023-01-25T13:04:32.198Z,1.83
2023-01-25T13:05:32.198Z,1.87
2023-01-25T13:06:32.175Z,1.89
2023-01-25T13:07:32.157Z,1.89
2023-01-25T13:08:32.565Z,1.87
2023-01-25T13:09:32.131Z,1.82
2023-01-25T13:10:32.142Z,1.82
2023-01-25T13:11:32.136Z,1.85
2023-01-25T13:12:32.087Z,1.83
2023-01-25T13:13:32.068Z,1.83
2023-01-25T13:14:32.077Z,1.85
2023-01-25T13:15:32.056Z,1.85
2023-01-25T13:16:32.119Z,1.87
2023-01-25T13:17:33.257Z,1.85
2023-01-25T13:18:31.998Z,1.83
2023-01-25T13:19:32.009Z,1.78
2023-01-25T13:20:31.987Z,1.75
2023-01-25T13:21:31.977Z,1.75
2023-01-25T13:22:31.946Z,1.69
2023-01-25T13:23:31.951Z,1.68
2023-01-25T13:24:31.940Z,1.64
2023-01-25T13:25:31.928Z,1.61
2023-01-25T13:26:31.930Z,1.61
2023-01-25T13:27:31.901Z,1.65
2023-01-25T13:28:31.889Z,1.69
2023-01-25T13:29:31.913Z,1.69
2023-01-25T13:30:31.887Z,1.69
2023-01-25T13:31:46.415Z,1.71
2023-01-25T13:32:32.847Z,1.69
2023-01-25T13:33:31.821Z,1.73
2023-01-25T13:34:31.799Z,1.73
2023-01-25T13:35:31.795Z,1.75
2023-01-25T13:36:31.815Z,1.76
2023-01-25T13:37:31.766Z,1.75
2023-01-25T13:38:31.766Z,1.73
2023-01-25T13:39:31.763Z,1.72
2023-01-25T13:40:31.749Z,1.69
2023-01-25T13:41:31.730Z,1.64
2023-01-25T13:42:31.707Z,1.65
2023-01-25T13:43:31.695Z,1.68
2023-01-25T13:44:31.669Z,1.68
2023-01-25T13:45:31.697Z,1.71